sensor_id;sensor_type;location;lat;lon;timestamp;temperature;humidity
20125;DHT22;10223;50.862;4.360;2023-06-26T00:02:14;23.90;99.90
20125;DHT22;10223;50.862;4.360;2023-06-26T00:04:42;23.90;99.90
20125;DHT22;10223;50.862;4.360;2023-06-26T00:07:09;23.70;99.90
20125;DHT22;10223;50.862;4.360;2023-06-26T00:09:36;23.60;99.90
20125;DHT22;10223;50.862;4.360;2023-06-26T00:12:04;23.60;99.90
20125;DHT22;10223;50.862;4.360;2023-06-26T00:14:31;23.50;99.90
20125;DHT22;10223;50.862;4.360;2023-06-26T00:16:59;23.40;99.90
20125;DHT22;10223;50.862;4.360;2023-06-26T00:19:26;23.40;99.90
20125;DHT22;10223;50.862;4.360;2023-06-26T00:21:52;23.40;99.90
20125;DHT22;10223;50.862;4.360;2023-06-26T00:24:19;23.40;99.90
20125;DHT22;10223;50.862;4.360;2023-06-26T00:26:47;23.20;99.90
20125;DHT22;10223;50.862;4.360;2023-06-26T00:29:14;23.10;99.90
20125;DHT22;10223;50.862;4.360;2023-06-26T00:31:41;22.90;99.90
20125;DHT22;10223;50.862;4.360;2023-06-26T00:34:09;22.90;99.90
20125;DHT22;10223;50.862;4.360;2023-06-26T00:36:36;22.80;99.90
20125;DHT22;10223;50.862;4.360;2023-06-26T00:39:02;22.80;99.90
20125;DHT22;10223;50.862;4.360;2023-06-26T00:41:29;22.70;99.90
20125;DHT22;10223;50.862;4.360;2023-06-26T00:43:56;22.70;99.90
20125;DHT22;10223;50.862;4.360;2023-06-26T00:46:23;22.70;99.90
20125;DHT22;10223;50.862;4.360;2023-06-26T00:48:50;22.60;99.90
20125;DHT22;10223;50.862;4.360;2023-06-26T00:51:18;22.50;99.90
20125;DHT22;10223;50.862;4.360;2023-06-26T00:53:45;22.40;99.90
20125;DHT22;10223;50.862;4.360;2023-06-26T00:56:12;22.40;99.90
20125;DHT22;10223;50.862;4.360;2023-06-26T00:58:39;22.40;99.90
20125;DHT22;10223;50.862;4.360;2023-06-26T01:01:06;22.40;99.90
20125;DHT22;10223;50.862;4.360;2023-06-26T01:03:34;22.30;99.90
20125;DHT22;10223;50.862;4.360;2023-06-26T01:06:02;22.20;99.90
20125;DHT22;10223;50.862;4.360;2023-06-26T01:08:31;22.20;99.90
20125;DHT22;10223;50.862;4.360;2023-06-26T01:10:59;22.10;99.90
20125;DHT22;10223;50.862;4.360;2023-06-26T01:13:27;22.10;99.90
20125;DHT22;10223;50.862;4.360;2023-06-26T01:15:55;22.10;99.90
20125;DHT22;10223;50.862;4.360;2023-06-26T01:18:24;22.10;99.90
20125;DHT22;10223;50.862;4.360;2023-06-26T01:20:52;22.00;99.90
20125;DHT22;10223;50.862;4.360;2023-06-26T01:23:22;21.90;99.90
20125;DHT22;10223;50.862;4.360;2023-06-26T01:26:15;21.90;99.90
20125;DHT22;10223;50.862;4.360;2023-06-26T01:28:43;21.90;99.90
20125;DHT22;10223;50.862;4.360;2023-06-26T01:31:11;21.90;99.90
20125;DHT22;10223;50.862;4.360;2023-06-26T01:33:39;21.90;99.90
20125;DHT22;10223;50.862;4.360;2023-06-26T01:36:06;21.90;99.90
20125;DHT22;10223;50.862;4.360;2023-06-26T01:38:34;22.00;99.90
20125;DHT22;10223;50.862;4.360;2023-06-26T01:41:01;22.10;99.90
20125;DHT22;10223;50.862;4.360;2023-06-26T01:43:36;22.00;99.90
20125;DHT22;10223;50.862;4.360;2023-06-26T01:46:09;21.80;99.90
20125;DHT22;10223;50.862;4.360;2023-06-26T01:48:40;21.70;99.90
20125;DHT22;10223;50.862;4.360;2023-06-26T01:51:11;21.60;99.90
20125;DHT22;10223;50.862;4.360;2023-06-26T01:53:45;21.60;99.90
20125;DHT22;10223;50.862;4.360;2023-06-26T01:56:14;21.60;99.90
20125;DHT22;10223;50.862;4.360;2023-06-26T01:58:45;21.50;99.90
20125;DHT22;10223;50.862;4.360;2023-06-26T02:01:12;21.50;99.90
20125;DHT22;10223;50.862;4.360;2023-06-26T02:03:39;21.40;99.90
20125;DHT22;10223;50.862;4.360;2023-06-26T02:06:06;21.40;99.90
20125;DHT22;10223;50.862;4.360;2023-06-26T02:08:33;21.30;99.90
20125;DHT22;10223;50.862;4.360;2023-06-26T02:10:59;21.20;99.90
20125;DHT22;10223;50.862;4.360;2023-06-26T02:13:26;21.20;99.90
20125;DHT22;10223;50.862;4.360;2023-06-26T02:15:54;21.10;99.90
20125;DHT22;10223;50.862;4.360;2023-06-26T02:18:21;21.10;99.90
20125;DHT22;10223;50.862;4.360;2023-06-26T02:20:49;21.00;99.90
20125;DHT22;10223;50.862;4.360;2023-06-26T02:23:15;21.00;99.90
20125;DHT22;10223;50.862;4.360;2023-06-26T02:25:42;21.00;99.90
20125;DHT22;10223;50.862;4.360;2023-06-26T02:28:09;21.00;99.90
20125;DHT22;10223;50.862;4.360;2023-06-26T02:30:36;21.00;99.90
20125;DHT22;10223;50.862;4.360;2023-06-26T02:33:04;21.10;99.90
20125;DHT22;10223;50.862;4.360;2023-06-26T02:35:31;21.00;99.90
20125;DHT22;10223;50.862;4.360;2023-06-26T02:37:58;20.90;99.90
20125;DHT22;10223;50.862;4.360;2023-06-26T02:40:25;20.80;99.90
20125;DHT22;10223;50.862;4.360;2023-06-26T02:42:52;20.80;99.90
20125;DHT22;10223;50.862;4.360;2023-06-26T02:45:19;20.70;99.90
20125;DHT22;10223;50.862;4.360;2023-06-26T02:47:46;20.70;99.90
20125;DHT22;10223;50.862;4.360;2023-06-26T02:50:14;20.60;99.90
20125;DHT22;10223;50.862;4.360;2023-06-26T02:52:41;20.60;99.90
20125;DHT22;10223;50.862;4.360;2023-06-26T02:55:08;20.50;99.90
20125;DHT22;10223;50.862;4.360;2023-06-26T02:57:35;20.40;99.90
20125;DHT22;10223;50.862;4.360;2023-06-26T03:00:02;20.30;99.90
20125;DHT22;10223;50.862;4.360;2023-06-26T03:02:30;20.40;99.90
20125;DHT22;10223;50.862;4.360;2023-06-26T03:04:57;20.30;99.90
20125;DHT22;10223;50.862;4.360;2023-06-26T03:07:25;20.40;99.90
20125;DHT22;10223;50.862;4.360;2023-06-26T03:09:52;20.20;99.90
20125;DHT22;10223;50.862;4.360;2023-06-26T03:12:19;20.20;99.90
20125;DHT22;10223;50.862;4.360;2023-06-26T03:14:46;20.10;99.90
20125;DHT22;10223;50.862;4.360;2023-06-26T03:17:13;20.10;99.90
20125;DHT22;10223;50.862;4.360;2023-06-26T03:19:40;20.10;99.90
20125;DHT22;10223;50.862;4.360;2023-06-26T03:22:06;20.00;99.90
20125;DHT22;10223;50.862;4.360;2023-06-26T03:24:35;19.90;99.90
20125;DHT22;10223;50.862;4.360;2023-06-26T03:27:02;19.80;99.90
20125;DHT22;10223;50.862;4.360;2023-06-26T03:29:28;19.90;99.90
20125;DHT22;10223;50.862;4.360;2023-06-26T03:31:56;19.90;99.90
20125;DHT22;10223;50.862;4.360;2023-06-26T03:34:23;20.00;99.90
20125;DHT22;10223;50.862;4.360;2023-06-26T03:36:49;19.90;99.90
20125;DHT22;10223;50.862;4.360;2023-06-26T03:39:16;19.80;99.90
20125;DHT22;10223;50.862;4.360;2023-06-26T03:41:45;19.70;99.90
20125;DHT22;10223;50.862;4.360;2023-06-26T03:44:11;19.60;99.90
20125;DHT22;10223;50.862;4.360;2023-06-26T03:46:38;19.50;99.90
20125;DHT22;10223;50.862;4.360;2023-06-26T03:49:05;19.70;99.90
20125;DHT22;10223;50.862;4.360;2023-06-26T03:51:32;19.40;99.90
20125;DHT22;10223;50.862;4.360;2023-06-26T03:53:59;19.40;99.90
20125;DHT22;10223;50.862;4.360;2023-06-26T03:56:26;19.50;99.90
20125;DHT22;10223;50.862;4.360;2023-06-26T03:58:54;19.50;99.90
20125;DHT22;10223;50.862;4.360;2023-06-26T04:01:21;19.60;99.90
20125;DHT22;10223;50.862;4.360;2023-06-26T04:03:48;19.20;99.90
20125;DHT22;10223;50.862;4.360;2023-06-26T04:06:15;19.20;99.90
20125;DHT22;10223;50.862;4.360;2023-06-26T04:08:41;19.20;99.90
20125;DHT22;10223;50.862;4.360;2023-06-26T04:11:08;19.30;99.90
20125;DHT22;10223;50.862;4.360;2023-06-26T04:13:35;19.40;99.90
20125;DHT22;10223;50.862;4.360;2023-06-26T04:16:04;19.30;99.90
20125;DHT22;10223;50.862;4.360;2023-06-26T04:18:31;19.40;99.90
20125;DHT22;10223;50.862;4.360;2023-06-26T04:21:09;19.20;99.90
20125;DHT22;10223;50.862;4.360;2023-06-26T04:23:37;19.10;99.90
20125;DHT22;10223;50.862;4.360;2023-06-26T04:26:05;19.20;99.90
20125;DHT22;10223;50.862;4.360;2023-06-26T04:28:32;19.20;99.90
20125;DHT22;10223;50.862;4.360;2023-06-26T04:30:59;19.20;99.90
20125;DHT22;10223;50.862;4.360;2023-06-26T04:33:27;19.20;99.90
20125;DHT22;10223;50.862;4.360;2023-06-26T04:35:54;19.10;99.90
20125;DHT22;10223;50.862;4.360;2023-06-26T04:38:21;19.30;99.90
20125;DHT22;10223;50.862;4.360;2023-06-26T04:40:48;19.20;99.90
20125;DHT22;10223;50.862;4.360;2023-06-26T04:43:15;19.10;99.90
20125;DHT22;10223;50.862;4.360;2023-06-26T04:45:42;19.10;99.90
20125;DHT22;10223;50.862;4.360;2023-06-26T04:48:09;19.00;99.90
20125;DHT22;10223;50.862;4.360;2023-06-26T04:50:37;18.90;99.90
20125;DHT22;10223;50.862;4.360;2023-06-26T04:53:04;18.90;99.90
20125;DHT22;10223;50.862;4.360;2023-06-26T04:55:31;18.90;99.90
20125;DHT22;10223;50.862;4.360;2023-06-26T04:57:58;18.90;99.90
20125;DHT22;10223;50.862;4.360;2023-06-26T05:00:25;18.80;99.90
20125;DHT22;10223;50.862;4.360;2023-06-26T05:02:52;18.70;99.90
20125;DHT22;10223;50.862;4.360;2023-06-26T05:05:26;18.70;99.90
20125;DHT22;10223;50.862;4.360;2023-06-26T05:07:54;18.80;99.90
20125;DHT22;10223;50.862;4.360;2023-06-26T05:10:21;18.70;99.90
20125;DHT22;10223;50.862;4.360;2023-06-26T05:12:48;18.80;99.90
20125;DHT22;10223;50.862;4.360;2023-06-26T05:15:15;18.60;99.90
20125;DHT22;10223;50.862;4.360;2023-06-26T05:17:42;18.70;99.90
20125;DHT22;10223;50.862;4.360;2023-06-26T05:20:10;18.60;99.90
20125;DHT22;10223;50.862;4.360;2023-06-26T05:22:37;18.80;99.90
20125;DHT22;10223;50.862;4.360;2023-06-26T05:25:09;18.80;99.90
20125;DHT22;10223;50.862;4.360;2023-06-26T05:27:37;18.80;99.90
20125;DHT22;10223;50.862;4.360;2023-06-26T05:30:05;18.70;99.90
20125;DHT22;10223;50.862;4.360;2023-06-26T05:32:34;18.90;99.90
20125;DHT22;10223;50.862;4.360;2023-06-26T05:35:02;18.80;99.90
20125;DHT22;10223;50.862;4.360;2023-06-26T05:37:32;18.80;99.90
20125;DHT22;10223;50.862;4.360;2023-06-26T05:40:00;18.90;99.90
20125;DHT22;10223;50.862;4.360;2023-06-26T05:42:30;19.10;99.90
20125;DHT22;10223;50.862;4.360;2023-06-26T05:44:57;19.20;99.90
20125;DHT22;10223;50.862;4.360;2023-06-26T05:47:24;19.20;99.90
20125;DHT22;10223;50.862;4.360;2023-06-26T05:49:51;19.30;99.90
20125;DHT22;10223;50.862;4.360;2023-06-26T05:52:18;19.20;99.90
20125;DHT22;10223;50.862;4.360;2023-06-26T05:54:46;19.30;99.90
20125;DHT22;10223;50.862;4.360;2023-06-26T05:57:13;19.20;99.90
20125;DHT22;10223;50.862;4.360;2023-06-26T05:59:43;19.30;99.90
20125;DHT22;10223;50.862;4.360;2023-06-26T06:02:11;19.20;99.90
20125;DHT22;10223;50.862;4.360;2023-06-26T06:04:38;19.40;99.90
20125;DHT22;10223;50.862;4.360;2023-06-26T06:07:05;19.40;99.90
20125;DHT22;10223;50.862;4.360;2023-06-26T06:09:32;19.60;99.90
20125;DHT22;10223;50.862;4.360;2023-06-26T06:11:59;19.50;99.90
20125;DHT22;10223;50.862;4.360;2023-06-26T06:14:27;19.50;99.90
20125;DHT22;10223;50.862;4.360;2023-06-26T06:16:55;19.60;99.90
20125;DHT22;10223;50.862;4.360;2023-06-26T06:19:22;19.60;99.90
20125;DHT22;10223;50.862;4.360;2023-06-26T06:21:49;19.70;99.90
20125;DHT22;10223;50.862;4.360;2023-06-26T06:24:16;19.80;99.90
20125;DHT22;10223;50.862;4.360;2023-06-26T06:26:43;19.80;99.90
20125;DHT22;10223;50.862;4.360;2023-06-26T06:29:10;19.80;99.90
20125;DHT22;10223;50.862;4.360;2023-06-26T06:31:37;19.80;99.90
20125;DHT22;10223;50.862;4.360;2023-06-26T06:34:05;19.90;99.90
20125;DHT22;10223;50.862;4.360;2023-06-26T06:36:32;19.80;99.90
20125;DHT22;10223;50.862;4.360;2023-06-26T06:38:59;19.70;99.90
20125;DHT22;10223;50.862;4.360;2023-06-26T06:41:26;19.70;99.90
20125;DHT22;10223;50.862;4.360;2023-06-26T06:43:52;19.70;99.90
20125;DHT22;10223;50.862;4.360;2023-06-26T06:46:19;19.70;99.90
20125;DHT22;10223;50.862;4.360;2023-06-26T06:48:46;19.80;99.90
20125;DHT22;10223;50.862;4.360;2023-06-26T06:51:15;20.00;99.90
20125;DHT22;10223;50.862;4.360;2023-06-26T06:56:45;20.10;99.90
20125;DHT22;10223;50.862;4.360;2023-06-26T06:59:11;20.20;99.90
20125;DHT22;10223;50.862;4.360;2023-06-26T07:01:39;20.40;99.90
20125;DHT22;10223;50.862;4.360;2023-06-26T07:04:06;20.30;99.90
20125;DHT22;10223;50.862;4.360;2023-06-26T07:06:34;20.30;99.90
20125;DHT22;10223;50.862;4.360;2023-06-26T07:09:02;20.40;99.90
20125;DHT22;10223;50.862;4.360;2023-06-26T07:11:29;20.40;99.90
20125;DHT22;10223;50.862;4.360;2023-06-26T07:13:56;20.30;99.90
20125;DHT22;10223;50.862;4.360;2023-06-26T07:16:22;20.30;99.90
20125;DHT22;10223;50.862;4.360;2023-06-26T07:18:49;20.40;99.90
20125;DHT22;10223;50.862;4.360;2023-06-26T07:21:17;20.50;99.90
20125;DHT22;10223;50.862;4.360;2023-06-26T07:23:46;20.60;99.90
20125;DHT22;10223;50.862;4.360;2023-06-26T07:26:14;20.60;99.90
20125;DHT22;10223;50.862;4.360;2023-06-26T07:28:41;20.80;99.90
20125;DHT22;10223;50.862;4.360;2023-06-26T07:31:08;21.00;99.90
20125;DHT22;10223;50.862;4.360;2023-06-26T07:33:35;21.50;99.90
20125;DHT22;10223;50.862;4.360;2023-06-26T07:36:02;21.40;99.90
20125;DHT22;10223;50.862;4.360;2023-06-26T07:38:29;21.70;99.90
20125;DHT22;10223;50.862;4.360;2023-06-26T07:40:57;21.80;99.90
20125;DHT22;10223;50.862;4.360;2023-06-26T07:43:24;21.90;99.90
20125;DHT22;10223;50.862;4.360;2023-06-26T07:45:51;22.30;99.90
20125;DHT22;10223;50.862;4.360;2023-06-26T07:48:18;22.30;99.90
20125;DHT22;10223;50.862;4.360;2023-06-26T07:50:46;22.70;99.90
20125;DHT22;10223;50.862;4.360;2023-06-26T07:53:12;22.80;99.90
20125;DHT22;10223;50.862;4.360;2023-06-26T07:55:39;23.20;99.90
20125;DHT22;10223;50.862;4.360;2023-06-26T07:58:08;23.00;99.90
20125;DHT22;10223;50.862;4.360;2023-06-26T08:00:35;23.20;99.90
20125;DHT22;10223;50.862;4.360;2023-06-26T08:03:02;23.50;99.90
20125;DHT22;10223;50.862;4.360;2023-06-26T08:05:29;23.50;99.90
20125;DHT22;10223;50.862;4.360;2023-06-26T08:07:56;23.70;99.90
20125;DHT22;10223;50.862;4.360;2023-06-26T08:10:22;24.00;99.90
20125;DHT22;10223;50.862;4.360;2023-06-26T08:12:49;24.30;99.90
20125;DHT22;10223;50.862;4.360;2023-06-26T08:15:19;24.10;99.90
20125;DHT22;10223;50.862;4.360;2023-06-26T08:17:47;23.90;99.90
20125;DHT22;10223;50.862;4.360;2023-06-26T08:20:16;23.40;99.90
20125;DHT22;10223;50.862;4.360;2023-06-26T08:22:44;24.00;99.90
20125;DHT22;10223;50.862;4.360;2023-06-26T08:25:13;23.90;99.90
20125;DHT22;10223;50.862;4.360;2023-06-26T08:27:40;24.10;99.90
20125;DHT22;10223;50.862;4.360;2023-06-26T08:30:07;24.30;99.90
20125;DHT22;10223;50.862;4.360;2023-06-26T08:32:36;24.00;99.90
20125;DHT22;10223;50.862;4.360;2023-06-26T08:35:03;23.50;99.90
20125;DHT22;10223;50.862;4.360;2023-06-26T08:37:30;23.50;99.90
20125;DHT22;10223;50.862;4.360;2023-06-26T08:39:58;23.60;99.90
20125;DHT22;10223;50.862;4.360;2023-06-26T08:42:25;23.70;99.90
20125;DHT22;10223;50.862;4.360;2023-06-26T08:44:51;23.30;99.90
20125;DHT22;10223;50.862;4.360;2023-06-26T08:47:19;23.30;99.90
20125;DHT22;10223;50.862;4.360;2023-06-26T08:50:03;23.70;99.90
20125;DHT22;10223;50.862;4.360;2023-06-26T08:52:36;23.80;99.90
20125;DHT22;10223;50.862;4.360;2023-06-26T08:55:06;23.90;99.90
20125;DHT22;10223;50.862;4.360;2023-06-26T08:57:35;23.90;99.90
20125;DHT22;10223;50.862;4.360;2023-06-26T09:00:03;23.90;99.90
20125;DHT22;10223;50.862;4.360;2023-06-26T09:02:31;23.60;99.90
20125;DHT22;10223;50.862;4.360;2023-06-26T09:04:59;23.40;99.90
20125;DHT22;10223;50.862;4.360;2023-06-26T09:07:26;23.50;99.90
20125;DHT22;10223;50.862;4.360;2023-06-26T09:09:53;23.60;99.90
20125;DHT22;10223;50.862;4.360;2023-06-26T09:12:20;23.90;99.90
20125;DHT22;10223;50.862;4.360;2023-06-26T09:14:48;23.50;99.90
20125;DHT22;10223;50.862;4.360;2023-06-26T09:17:15;23.70;99.90
20125;DHT22;10223;50.862;4.360;2023-06-26T09:19:45;24.10;99.90
20125;DHT22;10223;50.862;4.360;2023-06-26T09:22:14;24.20;99.90
20125;DHT22;10223;50.862;4.360;2023-06-26T09:24:43;24.00;99.90
20125;DHT22;10223;50.862;4.360;2023-06-26T09:27:11;23.80;99.90
20125;DHT22;10223;50.862;4.360;2023-06-26T09:29:38;24.10;99.90
20125;DHT22;10223;50.862;4.360;2023-06-26T09:32:07;24.50;99.90
20125;DHT22;10223;50.862;4.360;2023-06-26T09:34:34;24.80;99.90
20125;DHT22;10223;50.862;4.360;2023-06-26T09:37:01;25.40;99.90
20125;DHT22;10223;50.862;4.360;2023-06-26T09:39:31;25.20;99.90
20125;DHT22;10223;50.862;4.360;2023-06-26T09:41:58;25.20;99.90
20125;DHT22;10223;50.862;4.360;2023-06-26T09:44:27;25.10;99.90
20125;DHT22;10223;50.862;4.360;2023-06-26T09:46:57;24.90;99.90
20125;DHT22;10223;50.862;4.360;2023-06-26T09:49:24;24.60;99.90
20125;DHT22;10223;50.862;4.360;2023-06-26T09:51:51;24.80;99.90
20125;DHT22;10223;50.862;4.360;2023-06-26T09:54:21;24.80;99.90
20125;DHT22;10223;50.862;4.360;2023-06-26T09:56:50;24.20;99.90
20125;DHT22;10223;50.862;4.360;2023-06-26T09:59:17;23.50;99.90
20125;DHT22;10223;50.862;4.360;2023-06-26T10:01:45;23.10;99.90
20125;DHT22;10223;50.862;4.360;2023-06-26T10:04:13;23.40;99.90
20125;DHT22;10223;50.862;4.360;2023-06-26T10:06:44;23.70;99.90
20125;DHT22;10223;50.862;4.360;2023-06-26T10:09:13;24.10;99.90
20125;DHT22;10223;50.862;4.360;2023-06-26T10:11:45;24.30;99.90
20125;DHT22;10223;50.862;4.360;2023-06-26T10:14:15;24.30;99.90
20125;DHT22;10223;50.862;4.360;2023-06-26T10:16:44;24.50;99.90
20125;DHT22;10223;50.862;4.360;2023-06-26T10:19:13;24.70;99.90
20125;DHT22;10223;50.862;4.360;2023-06-26T10:21:41;24.20;99.90
20125;DHT22;10223;50.862;4.360;2023-06-26T10:24:15;24.00;99.90
20125;DHT22;10223;50.862;4.360;2023-06-26T10:26:45;24.40;99.90
20125;DHT22;10223;50.862;4.360;2023-06-26T10:29:16;24.50;99.90
20125;DHT22;10223;50.862;4.360;2023-06-26T10:31:56;24.50;99.90
20125;DHT22;10223;50.862;4.360;2023-06-26T10:34:25;24.50;99.90
20125;DHT22;10223;50.862;4.360;2023-06-26T10:36:59;24.60;99.90
20125;DHT22;10223;50.862;4.360;2023-06-26T10:39:26;24.20;99.90
20125;DHT22;10223;50.862;4.360;2023-06-26T10:41:54;24.00;99.90
20125;DHT22;10223;50.862;4.360;2023-06-26T10:44:23;24.00;99.90
20125;DHT22;10223;50.862;4.360;2023-06-26T10:46:51;24.20;99.90
20125;DHT22;10223;50.862;4.360;2023-06-26T10:49:19;24.20;99.90
20125;DHT22;10223;50.862;4.360;2023-06-26T10:51:49;24.30;99.90
20125;DHT22;10223;50.862;4.360;2023-06-26T10:54:17;24.20;99.90
20125;DHT22;10223;50.862;4.360;2023-06-26T10:56:46;24.40;99.90
20125;DHT22;10223;50.862;4.360;2023-06-26T10:59:17;24.80;99.90
20125;DHT22;10223;50.862;4.360;2023-06-26T11:01:47;24.50;99.90
20125;DHT22;10223;50.862;4.360;2023-06-26T11:04:37;24.40;99.90
20125;DHT22;10223;50.862;4.360;2023-06-26T11:07:22;24.00;99.90
20125;DHT22;10223;50.862;4.360;2023-06-26T11:09:59;23.80;99.90
20125;DHT22;10223;50.862;4.360;2023-06-26T11:12:34;23.90;99.90
20125;DHT22;10223;50.862;4.360;2023-06-26T11:15:02;24.00;99.90
20125;DHT22;10223;50.862;4.360;2023-06-26T11:17:32;24.00;99.90
20125;DHT22;10223;50.862;4.360;2023-06-26T11:19:58;24.00;99.90
20125;DHT22;10223;50.862;4.360;2023-06-26T11:22:26;24.00;99.90
20125;DHT22;10223;50.862;4.360;2023-06-26T11:24:54;23.90;99.90
20125;DHT22;10223;50.862;4.360;2023-06-26T11:27:21;23.70;99.90
20125;DHT22;10223;50.862;4.360;2023-06-26T11:29:49;23.60;99.90
20125;DHT22;10223;50.862;4.360;2023-06-26T11:32:16;23.40;99.90
20125;DHT22;10223;50.862;4.360;2023-06-26T11:34:44;23.50;99.90
20125;DHT22;10223;50.862;4.360;2023-06-26T11:37:16;23.90;99.90
20125;DHT22;10223;50.862;4.360;2023-06-26T11:39:43;24.00;99.90
20125;DHT22;10223;50.862;4.360;2023-06-26T11:42:11;24.20;99.90
20125;DHT22;10223;50.862;4.360;2023-06-26T11:44:41;24.20;99.90
20125;DHT22;10223;50.862;4.360;2023-06-26T11:47:12;24.60;99.90
20125;DHT22;10223;50.862;4.360;2023-06-26T11:49:43;24.70;99.90
20125;DHT22;10223;50.862;4.360;2023-06-26T11:52:10;25.00;99.90
20125;DHT22;10223;50.862;4.360;2023-06-26T11:54:37;25.00;99.90
20125;DHT22;10223;50.862;4.360;2023-06-26T11:57:04;25.00;99.90
20125;DHT22;10223;50.862;4.360;2023-06-26T11:59:35;24.80;99.90
20125;DHT22;10223;50.862;4.360;2023-06-26T12:02:05;24.80;99.90
20125;DHT22;10223;50.862;4.360;2023-06-26T12:04:33;24.70;99.90
20125;DHT22;10223;50.862;4.360;2023-06-26T12:07:02;25.20;99.90
20125;DHT22;10223;50.862;4.360;2023-06-26T12:09:31;25.10;99.90
20125;DHT22;10223;50.862;4.360;2023-06-26T12:11:59;25.00;99.90
20125;DHT22;10223;50.862;4.360;2023-06-26T12:14:28;24.90;99.90
20125;DHT22;10223;50.862;4.360;2023-06-26T12:16:56;25.10;99.90
20125;DHT22;10223;50.862;4.360;2023-06-26T12:19:30;24.80;99.90
20125;DHT22;10223;50.862;4.360;2023-06-26T12:21:58;24.60;99.90
20125;DHT22;10223;50.862;4.360;2023-06-26T12:24:26;24.60;99.90
20125;DHT22;10223;50.862;4.360;2023-06-26T12:26:54;24.40;99.90
20125;DHT22;10223;50.862;4.360;2023-06-26T12:29:29;24.50;99.90
20125;DHT22;10223;50.862;4.360;2023-06-26T12:31:56;24.70;99.90
20125;DHT22;10223;50.862;4.360;2023-06-26T12:34:26;25.00;99.90
20125;DHT22;10223;50.862;4.360;2023-06-26T12:36:59;25.20;99.90
20125;DHT22;10223;50.862;4.360;2023-06-26T12:39:27;25.20;99.90
20125;DHT22;10223;50.862;4.360;2023-06-26T12:41:55;25.20;99.90
20125;DHT22;10223;50.862;4.360;2023-06-26T12:44:25;24.70;99.90
20125;DHT22;10223;50.862;4.360;2023-06-26T12:46:54;24.60;99.90
20125;DHT22;10223;50.862;4.360;2023-06-26T12:49:29;24.60;99.90
20125;DHT22;10223;50.862;4.360;2023-06-26T12:51:56;24.70;99.90
20125;DHT22;10223;50.862;4.360;2023-06-26T12:54:23;24.70;99.90
20125;DHT22;10223;50.862;4.360;2023-06-26T12:56:51;24.50;99.90
20125;DHT22;10223;50.862;4.360;2023-06-26T12:59:18;24.40;99.90
20125;DHT22;10223;50.862;4.360;2023-06-26T13:01:45;24.20;99.90
20125;DHT22;10223;50.862;4.360;2023-06-26T13:04:12;24.40;99.90
20125;DHT22;10223;50.862;4.360;2023-06-26T13:06:39;24.60;99.90
20125;DHT22;10223;50.862;4.360;2023-06-26T13:09:06;25.00;99.90
20125;DHT22;10223;50.862;4.360;2023-06-26T13:11:33;25.30;99.90
20125;DHT22;10223;50.862;4.360;2023-06-26T13:14:02;25.30;99.90
20125;DHT22;10223;50.862;4.360;2023-06-26T13:16:29;25.20;99.90
20125;DHT22;10223;50.862;4.360;2023-06-26T13:18:57;25.40;99.90
20125;DHT22;10223;50.862;4.360;2023-06-26T13:21:25;25.10;99.90
20125;DHT22;10223;50.862;4.360;2023-06-26T13:23:52;25.00;99.90
20125;DHT22;10223;50.862;4.360;2023-06-26T13:26:19;24.80;99.90
20125;DHT22;10223;50.862;4.360;2023-06-26T13:28:47;24.50;99.90
20125;DHT22;10223;50.862;4.360;2023-06-26T13:31:15;25.10;99.90
20125;DHT22;10223;50.862;4.360;2023-06-26T13:33:42;25.40;99.90
20125;DHT22;10223;50.862;4.360;2023-06-26T13:36:10;25.70;99.90
20125;DHT22;10223;50.862;4.360;2023-06-26T13:38:37;25.60;99.90
20125;DHT22;10223;50.862;4.360;2023-06-26T13:41:03;25.70;99.90
20125;DHT22;10223;50.862;4.360;2023-06-26T13:43:30;25.50;99.90
20125;DHT22;10223;50.862;4.360;2023-06-26T13:45:57;25.50;99.90
20125;DHT22;10223;50.862;4.360;2023-06-26T13:48:25;25.60;99.90
20125;DHT22;10223;50.862;4.360;2023-06-26T13:50:53;25.60;99.90
20125;DHT22;10223;50.862;4.360;2023-06-26T13:53:20;25.70;99.90
20125;DHT22;10223;50.862;4.360;2023-06-26T13:55:47;25.80;99.90
20125;DHT22;10223;50.862;4.360;2023-06-26T13:58:14;26.10;99.90
20125;DHT22;10223;50.862;4.360;2023-06-26T14:00:40;26.20;99.90
20125;DHT22;10223;50.862;4.360;2023-06-26T14:03:10;26.20;99.90
20125;DHT22;10223;50.862;4.360;2023-06-26T14:05:38;26.00;99.90
20125;DHT22;10223;50.862;4.360;2023-06-26T14:08:08;26.10;99.80
20125;DHT22;10223;50.862;4.360;2023-06-26T14:10:36;25.60;99.90
20125;DHT22;10223;50.862;4.360;2023-06-26T14:13:04;25.60;99.90
20125;DHT22;10223;50.862;4.360;2023-06-26T14:15:32;25.50;99.90
20125;DHT22;10223;50.862;4.360;2023-06-26T14:17:59;25.70;99.90
20125;DHT22;10223;50.862;4.360;2023-06-26T14:20:28;25.50;99.90
20125;DHT22;10223;50.862;4.360;2023-06-26T14:22:59;25.20;99.90
20125;DHT22;10223;50.862;4.360;2023-06-26T14:25:26;25.20;99.90
20125;DHT22;10223;50.862;4.360;2023-06-26T14:27:54;25.40;99.90
20125;DHT22;10223;50.862;4.360;2023-06-26T14:30:21;25.40;99.90
20125;DHT22;10223;50.862;4.360;2023-06-26T14:32:48;25.20;99.90
20125;DHT22;10223;50.862;4.360;2023-06-26T14:35:15;25.00;99.90
20125;DHT22;10223;50.862;4.360;2023-06-26T14:37:42;25.40;99.90
20125;DHT22;10223;50.862;4.360;2023-06-26T14:40:11;25.80;99.90
20125;DHT22;10223;50.862;4.360;2023-06-26T14:42:38;25.80;99.90
20125;DHT22;10223;50.862;4.360;2023-06-26T14:45:06;25.90;99.90
20125;DHT22;10223;50.862;4.360;2023-06-26T14:47:33;25.70;99.90
20125;DHT22;10223;50.862;4.360;2023-06-26T14:50:01;25.20;99.90
20125;DHT22;10223;50.862;4.360;2023-06-26T14:52:28;25.40;99.90
20125;DHT22;10223;50.862;4.360;2023-06-26T14:54:55;25.20;99.90
20125;DHT22;10223;50.862;4.360;2023-06-26T14:57:23;25.30;99.90
20125;DHT22;10223;50.862;4.360;2023-06-26T14:59:50;25.20;99.90
20125;DHT22;10223;50.862;4.360;2023-06-26T15:02:17;24.90;99.90
20125;DHT22;10223;50.862;4.360;2023-06-26T15:04:43;24.90;99.90
20125;DHT22;10223;50.862;4.360;2023-06-26T15:07:11;24.60;99.90
20125;DHT22;10223;50.862;4.360;2023-06-26T15:09:38;24.70;99.90
20125;DHT22;10223;50.862;4.360;2023-06-26T15:12:06;24.70;99.90
20125;DHT22;10223;50.862;4.360;2023-06-26T15:14:34;24.60;99.90
20125;DHT22;10223;50.862;4.360;2023-06-26T15:17:01;24.40;99.90
20125;DHT22;10223;50.862;4.360;2023-06-26T15:19:27;24.20;99.90
20125;DHT22;10223;50.862;4.360;2023-06-26T15:21:54;24.40;99.90
20125;DHT22;10223;50.862;4.360;2023-06-26T15:24:21;24.30;99.90
20125;DHT22;10223;50.862;4.360;2023-06-26T15:26:48;24.20;99.90
20125;DHT22;10223;50.862;4.360;2023-06-26T15:29:15;24.10;99.90
20125;DHT22;10223;50.862;4.360;2023-06-26T15:31:44;24.10;99.90
20125;DHT22;10223;50.862;4.360;2023-06-26T15:34:11;24.20;99.90
20125;DHT22;10223;50.862;4.360;2023-06-26T15:36:38;24.40;99.90
20125;DHT22;10223;50.862;4.360;2023-06-26T15:39:05;24.40;99.90